^^
Station Historical Data
 
Daily Summary for August 23, 2017 Units:  English    Metric   Both
« Previous Day
Next Day »
Daily Weekly Monthly Yearly Custom
  Current: High: Low: Average:
Temperature: 55.8 °F 62.2 °F 55.8 °F 59 °F
Dew Point: 52.0 °F 57.8 °F 51.9 °F 54.5 °F
Humidity: 87% 88% 82% 85%
Wind Speed: 0.0mph 1.2mph 0.0mph 0.1mph
Wind Gust: 0.0mph 1.2mph - -
WindCalm - - SW
Pressure: 29.81 in 29.84 in 29.80 in -
Precipitation: 0.00 in      
Historical Graphs
 
 
Tabular Data for August 23, 2017
Time Temperature Dew Point Pressure Wind Wind Speed Wind Gust Humidity Rainfall Rate (Hourly) solar Conditions
00:04 62.2 °F 57.6 °F 29.81 in Calm     85% 0.00 in WeatherDisplay:10.37 W/m2 CLR
00:09 62.1 °F 57.5 °F 29.81 in Calm     85% 0.00 in WeatherDisplay:10.37 W/m2 CLR
00:14 62.0 °F 57.8 °F 29.81 in Calm     86% 0.00 in WeatherDisplay:10.37 W/m2 CLR
00:19 62.0 °F 57.8 °F 29.81 in Calm     86% 0.00 in WeatherDisplay:10.37 W/m2 CLR
00:24 61.7 °F 56.5 °F 29.81 in SW 1.2 mph 1.2 mph 83% 0.00 in WeatherDisplay:10.37 W/m2 CLR
00:29 61.3 °F 56.1 °F 29.82 in Calm     83% 0.00 in WeatherDisplay:10.37 W/m2 CLR
00:34 61.0 °F 55.8 °F 29.82 in Calm     83% 0.00 in WeatherDisplay:10.37 W/m2 CLR
00:39 60.7 °F 55.8 °F 29.82 in Calm     84% 0.00 in WeatherDisplay:10.37 W/m2 CLR
00:44 60.5 °F 55.6 °F 29.82 in Calm     84% 0.00 in WeatherDisplay:10.37 W/m2 CLR
00:49 60.4 °F 55.5 °F 29.83 in Calm     84% 0.00 in WeatherDisplay:10.37 W/m2 CLR
00:54 60.1 °F 55.2 °F 29.83 in Calm     84% 0.00 in WeatherDisplay:10.37 W/m2 CLR
00:59 59.9 °F 55.4 °F 29.84 in Calm     85% 0.00 in WeatherDisplay:10.37 W/m2 CLR
01:04 59.8 °F 55.3 °F 29.82 in Calm     85% 0.00 in WeatherDisplay:10.37 W/m2 CLR
01:09 59.6 °F 55.1 °F 29.82 in Calm     85% 0.00 in WeatherDisplay:10.37 W/m2 CLR
01:14 59.6 °F 55.4 °F 29.82 in Calm     86% 0.00 in WeatherDisplay:10.37 W/m2 CLR
01:19 59.6 °F 55.1 °F 29.82 in Calm     85% 0.00 in WeatherDisplay:10.37 W/m2 CLR
01:24 59.6 °F 55.1 °F 29.82 in SW 1.2 mph 1.2 mph 85% 0.00 in WeatherDisplay:10.37 W/m2 CLR
01:29 59.7 °F 54.9 °F 29.82 in Calm     84% 0.00 in WeatherDisplay:10.37 W/m2 CLR
01:34 59.6 °F 54.8 °F 29.82 in Calm     84% 0.00 in WeatherDisplay:10.37 W/m2 CLR
01:39 59.5 °F 54.3 °F 29.82 in Calm     83% 0.00 in WeatherDisplay:10.37 W/m2 CLR
01:44 59.4 °F 54.2 °F 29.81 in Calm     83% 0.00 in WeatherDisplay:10.37 W/m2 CLR
01:49 59.2 °F 54.4 °F 29.82 in Calm     84% 0.00 in WeatherDisplay:10.37 W/m2 CLR
01:54 59.0 °F 53.8 °F 29.82 in Calm     83% 0.00 in WeatherDisplay:10.37 W/m2 CLR
01:59 59.0 °F 53.5 °F 29.82 in Calm     82% 0.00 in WeatherDisplay:10.37 W/m2 CLR
02:04 58.9 °F 54.1 °F 29.81 in Calm     84% 0.00 in WeatherDisplay:10.37 W/m2 CLR
02:09 58.7 °F 54.2 °F 29.81 in Calm     85% 0.00 in WeatherDisplay:10.37 W/m2 CLR
02:14 58.6 °F 54.4 °F 29.80 in Calm     86% 0.00 in WeatherDisplay:10.37 W/m2 CLR
02:19 58.4 °F 54.2 °F 29.81 in Calm     86% 0.00 in WeatherDisplay:10.37 W/m2 CLR
02:24 58.4 °F 53.9 °F 29.81 in Calm     85% 0.00 in WeatherDisplay:10.37 W/m2 CLR
02:29 58.2 °F 54.0 °F 29.81 in Calm     86% 0.00 in WeatherDisplay:10.37 W/m2 CLR
02:34 58.1 °F 53.9 °F 29.81 in Calm     86% 0.00 in WeatherDisplay:10.37 W/m2 CLR
02:39 57.9 °F 53.7 °F 29.81 in Calm     86% 0.00 in WeatherDisplay:10.37 W/m2 CLR
02:44 57.8 °F 53.6 °F 29.81 in Calm     86% 0.00 in WeatherDisplay:10.37 W/m2 CLR
02:49 57.6 °F 53.4 °F 29.81 in Calm     86% 0.00 in WeatherDisplay:10.37 W/m2 CLR
02:59 57.3 °F 53.5 °F 29.81 in Calm     87% 0.00 in WeatherDisplay:10.37 W/m2 CLR
03:04 57.2 °F 53.4 °F 29.81 in Calm     87% 0.00 in WeatherDisplay:10.37 W/m2 CLR
03:09 57.1 °F 53.3 °F 29.81 in Calm     87% 0.00 in WeatherDisplay:10.37 W/m2 CLR
03:14 57.0 °F 53.2 °F 29.81 in Calm     87% 0.00 in WeatherDisplay:10.37 W/m2 CLR
03:19 56.9 °F 53.4 °F 29.80 in Calm     88% 0.00 in WeatherDisplay:10.37 W/m2 CLR
03:24 56.7 °F 52.6 °F 29.80 in Calm     86% 0.00 in WeatherDisplay:10.37 W/m2 CLR
03:29 56.4 °F 52.3 °F 29.81 in Calm     86% 0.00 in WeatherDisplay:10.37 W/m2 CLR
03:34 56.3 °F 52.2 °F 29.81 in Calm     86% 0.00 in WeatherDisplay:10.37 W/m2 CLR
03:39 56.1 °F 52.3 °F 29.81 in Calm     87% 0.00 in WeatherDisplay:10.37 W/m2 CLR
03:44 56.0 °F 51.9 °F 29.81 in Calm     86% 0.00 in WeatherDisplay:10.37 W/m2 CLR
03:49 55.8 °F 52.0 °F 29.81 in Calm     87% 0.00 in WeatherDisplay:10.37 W/m2 CLR
Windsor Co Weather
Compliments of Weather Underground - 1.5 mb